Time;durP1;ratioP1;P1;durP2;ratioP2;P2;SDS_P1;SDS_P2;PMS_P1;PMS_P2;Temp;Humidity;BMP_temperature;BMP_pressure;BME280_temperature;BME280_humidity;BME280_pressure;Samples;Min_cycle;Max_cycle;Signal;HPM_P1;HPM_P2
2023/12/08 00:00:46;;;;;;;24.35;14.48;;;;;;;0.10;100.00;100426.34;6279011;22;20018;-80
2023/12/08 00:03:13;;;;;;;26.48;15.02;;;;;;;0.50;100.00;100477.47;6306339;22;20396;-80
2023/12/08 00:05:38;;;;;;;27.13;15.40;;;;;;;0.02;100.00;100418.44;6278860;22;20334;-78
2023/12/08 00:08:04;;;;;;;29.08;16.60;;;;;;;0.01;100.00;100395.75;6306410;22;20029;-80
2023/12/08 00:10:29;;;;;;;30.23;16.35;;;;;;;0.18;100.00;100431.63;6278751;22;20011;-79
2023/12/08 00:12:55;;;;;;;24.27;14.13;;;;;;;0.42;100.00;100470.38;6278904;22;20008;-80
2023/12/08 00:15:20;;;;;;;24.27;13.05;;;;;;;0.16;100.00;100423.09;6304380;22;20014;-80
2023/12/08 00:17:49;;;;;;;28.10;17.90;;;;;;;0.18;100.00;100417.66;6279216;22;20038;-80
2023/12/08 00:20:15;;;;;;;26.40;15.07;;;;;;;0.18;100.00;100428.19;6278808;22;20488;-80
2023/12/08 00:22:43;;;;;;;29.80;16.30;;;;;;;-0.07;100.00;100377.31;6278852;22;20003;-80
2023/12/08 00:25:42;;;;;;;;;;;;;;;;;;;;;
2023/12/08 00:28:10;;;;;;;30.10;15.80;;;;;;;0.29;100.00;100447.16;6306107;22;20102;-81
2023/12/08 00:30:39;;;;;;;24.63;13.73;;;;;;;-0.02;100.00;100396.03;6279536;22;20332;-80
2023/12/08 00:33:19;;;;;;;28.60;17.48;;;;;;;0.03;100.00;100395.59;6278466;22;20037;-82
2023/12/08 00:35:48;;;;;;;28.23;16.55;;;;;;;0.15;100.00;100407.47;6278561;22;20302;-81
2023/12/08 00:38:25;;;;;;;28.65;13.90;;;;;;;0.01;100.00;100387.88;6277565;22;20015;-80
2023/12/08 00:41:09;;;;;;;24.67;15.30;;;;;;;0.38;100.00;100440.13;6278687;22;20010;-80
2023/12/08 00:43:35;;;;;;;25.25;13.20;;;;;;;0.19;100.00;100400.91;6278847;22;20007;-79
2023/12/08 00:46:01;;;;;;;26.73;15.40;;;;;;;0.16;100.00;100394.16;6306151;22;20008;-79
2023/12/08 00:48:29;;;;;;;34.00;17.58;;;;;;;0.16;100.00;100396.81;6278662;22;20007;-78
2023/12/08 00:50:54;;;;;;;26.63;15.20;;;;;;;0.27;100.00;100407.03;6278428;22;20010;-78
2023/12/08 00:53:20;;;;;;;26.60;14.82;;;;;;;0.56;100.00;100468.94;6305606;22;20019;-79
2023/12/08 00:55:45;;;;;;;27.35;14.23;;;;;;;0.51;100.00;100439.66;6278128;22;20083;-80
2023/12/08 00:58:14;;;;;;;25.05;14.80;;;;;;;0.59;100.00;100437.09;6305605;22;20052;-79
2023/12/08 01:00:40;;;;;;;33.85;16.15;;;;;;;0.51;100.00;100424.69;6277827;22;20034;-79
2023/12/08 01:03:05;;;;;;;27.65;14.48;;;;;;;0.61;100.00;100435.94;6305273;22;20302;-79
2023/12/08 01:05:30;;;;;;;28.60;17.33;;;;;;;0.58;100.00;100430.16;6306382;22;20018;-80
2023/12/08 01:07:55;;;;;;;27.13;16.67;;;;;;;0.53;100.00;100422.72;6306257;22;20328;-80
2023/12/08 01:10:21;;;;;;;22.98;13.13;;;;;;;0.57;100.00;100423.22;6278986;22;20007;-81
2023/12/08 01:12:46;;;;;;;24.50;15.65;;;;;;;0.60;100.00;100423.75;6279024;22;20003;-80
2023/12/08 01:15:12;;;;;;;25.73;15.13;;;;;;;0.67;100.00;100423.94;6279031;22;20007;-80
2023/12/08 01:17:37;;;;;;;25.50;13.52;;;;;;;0.62;100.00;100415.72;6306274;22;20010;-79
2023/12/08 01:20:04;;;;;;;29.52;15.10;;;;;;;0.65;100.00;100417.19;6306129;22;20007;-80
2023/12/08 01:22:30;;;;;;;28.20;14.85;;;;;;;0.60;100.00;100415.88;6306238;22;20096;-81
2023/12/08 01:24:55;;;;;;;24.40;14.60;;;;;;;0.54;100.00;100407.78;6306277;22;20015;-80
2023/12/08 01:27:22;;;;;;;26.20;16.27;;;;;;;0.62;100.00;100420.97;6278709;22;20007;-81
2023/12/08 01:29:47;;;;;;;24.60;14.80;;;;;;;0.54;100.00;100408.59;6306274;22;21068;-81
2023/12/08 01:32:12;;;;;;;29.02;16.10;;;;;;;0.59;100.00;100410.78;6306477;22;20009;-81
2023/12/08 01:34:38;;;;;;;24.75;16.23;;;;;;;0.60;100.00;100407.16;6306202;22;20751;-81
2023/12/08 01:37:03;;;;;;;29.50;16.75;;;;;;;0.57;100.00;100395.13;6279188;22;20000;-80
2023/12/08 01:39:28;;;;;;;27.75;14.85;;;;;;;0.57;100.00;100383.78;6306384;22;20078;-81
2023/12/08 01:41:54;;;;;;;26.15;15.40;;;;;;;0.57;100.00;100386.41;6279046;22;20048;-79
2023/12/08 01:44:19;;;;;;;22.80;12.82;;;;;;;0.64;100.00;100392.69;6305933;22;20053;-80
2023/12/08 01:46:46;;;;;;;23.08;14.82;;;;;;;0.59;100.00;100395.00;6278581;22;20003;-81
2023/12/08 01:49:12;;;;;;;25.27;15.40;;;;;;;0.60;100.00;100386.94;6306483;22;20477;-81
2023/12/08 01:51:38;;;;;;;20.98;13.38;;;;;;;0.62;100.00;100386.78;6306289;22;20007;-80
2023/12/08 01:54:06;;;;;;;26.02;15.65;;;;;;;0.63;100.00;100387.59;6278545;22;20344;-82
2023/12/08 01:56:31;;;;;;;25.98;14.90;;;;;;;0.59;100.00;100387.09;6278666;22;20034;-80
2023/12/08 01:58:57;;;;;;;28.90;14.57;;;;;;;0.55;100.00;100372.59;6306144;22;20446;-81
2023/12/08 02:01:22;;;;;;;24.58;14.05;;;;;;;0.54;100.00;100370.94;6306157;22;20003;-80
2023/12/08 02:03:51;;;;;;;26.75;15.48;;;;;;;0.58;100.00;100373.13;6306281;22;20007;-82
2023/12/08 02:06:20;;;;;;;26.83;15.32;;;;;;;0.60;100.00;100381.69;6278781;22;20007;-80
2023/12/08 02:08:49;;;;;;;27.42;16.75;;;;;;;0.59;100.00;100376.59;6278758;22;20003;-80
2023/12/08 02:11:15;;;;;;;27.58;16.00;;;;;;;0.57;100.00;100365.38;6306440;22;20057;-82
2023/12/08 02:13:41;;;;;;;32.05;19.05;;;;;;;0.60;100.00;100365.06;6278678;22;20034;-81
2023/12/08 02:16:13;;;;;;;24.63;15.80;;;;;;;0.61;100.00;100350.94;6305724;22;20015;-81
2023/12/08 02:18:39;;;;;;;28.98;16.08;;;;;;;0.61;100.00;100356.19;6278817;22;20082;-81
2023/12/08 02:21:08;;;;;;;29.85;16.00;;;;;;;0.59;100.00;100348.47;6278805;22;20399;-81
2023/12/08 02:23:34;;;;;;;28.48;17.08;;;;;;;0.59;100.00;100342.38;6306045;22;20049;-80
2023/12/08 02:25:59;;;;;;;31.48;17.30;;;;;;;0.57;100.00;100333.81;6278665;22;20072;-81
2023/12/08 02:28:25;;;;;;;33.05;18.25;;;;;;;0.64;100.00;100329.56;6306053;22;20011;-82
2023/12/08 02:30:54;;;;;;;32.28;19.48;;;;;;;0.60;100.00;100323.81;6278831;22;20432;-81
2023/12/08 02:33:27;;;;;;;29.73;15.82;;;;;;;0.56;100.00;100313.75;6278641;22;20022;-81
2023/12/08 02:35:54;;;;;;;34.33;18.05;;;;;;;0.64;100.00;100331.38;6278751;22;20003;-81
2023/12/08 02:38:21;;;;;;;34.83;20.33;;;;;;;0.66;100.00;100342.56;6306103;22;20007;-81
2023/12/08 02:40:46;;;;;;;29.23;15.82;;;;;;;0.63;100.00;100348.97;6278611;22;20014;-81
2023/12/08 02:43:12;;;;;;;24.73;13.95;;;;;;;0.65;100.00;100344.38;6278716;22;20366;-81
2023/12/08 02:45:37;;;;;;;31.83;16.60;;;;;;;0.64;100.00;100337.47;6305822;22;20003;-81
2023/12/08 02:48:03;;;;;;;34.90;17.80;;;;;;;0.64;100.00;100334.81;6278414;22;20132;-82
2023/12/08 02:50:28;;;;;;;29.38;15.38;;;;;;;0.48;100.00;100313.75;6278500;22;20087;-82
2023/12/08 02:52:53;;;;;;;27.08;15.13;;;;;;;0.63;100.00;100332.34;6305826;22;20003;-82
2023/12/08 02:55:19;;;;;;;30.13;15.25;;;;;;;0.62;100.00;100326.28;6278432;22;20015;-82
2023/12/08 02:57:44;;;;;;;30.30;15.60;;;;;;;0.61;100.00;100322.00;6278378;22;20003;-81
2023/12/08 03:00:10;;;;;;;28.52;16.20;;;;;;;0.61;100.00;100332.53;6278394;22;20090;-82
2023/12/08 03:02:36;;;;;;;35.67;17.42;;;;;;;0.67;100.00;100339.75;6305910;22;19999;-81
2023/12/08 03:05:01;;;;;;;30.02;15.73;;;;;;;0.65;100.00;100340.91;6305746;22;20018;-81
2023/12/08 03:07:27;;;;;;;34.58;17.42;;;;;;;0.66;100.00;100348.63;6305901;22;20004;-80
2023/12/08 03:09:52;;;;;;;29.85;15.25;;;;;;;0.59;100.00;100332.69;6306021;22;20014;-81
2023/12/08 03:12:17;;;;;;;32.80;14.40;;;;;;;0.71;100.00;100350.78;6278377;22;20306;-80
2023/12/08 03:14:42;;;;;;;28.40;15.25;;;;;;;0.64;100.00;100334.00;6278434;22;20015;-82
2023/12/08 03:17:08;;;;;;;26.45;13.23;;;;;;;0.63;100.00;100320.03;6305933;22;20006;-81
2023/12/08 03:19:33;;;;;;;29.60;15.85;;;;;;;0.65;100.00;100323.31;6278377;22;20012;-81
2023/12/08 03:21:59;;;;;;;26.88;15.93;;;;;;;0.65;100.00;100331.22;6278381;22;20031;-81
2023/12/08 03:24:24;;;;;;;29.73;16.52;;;;;;;0.69;100.00;100329.91;6278260;22;20420;-81
2023/12/08 03:26:49;;;;;;;31.25;16.20;;;;;;;0.66;100.00;100329.41;6305927;22;20013;-83
2023/12/08 03:29:15;;;;;;;29.65;16.10;;;;;;;0.71;100.00;100329.72;6305653;22;20006;-81
2023/12/08 03:31:41;;;;;;;28.70;16.08;;;;;;;0.65;100.00;100330.38;6305703;22;20087;-82
2023/12/08 03:34:07;;;;;;;31.50;16.58;;;;;;;0.72;100.00;100331.38;6305825;22;20007;-82
2023/12/08 03:36:32;;;;;;;36.72;15.85;;;;;;;0.64;100.00;100312.97;6278288;22;20022;-83
2023/12/08 03:38:57;;;;;;;37.90;17.80;;;;;;;0.74;100.00;100330.22;6305792;22;19999;-83
2023/12/08 03:41:23;;;;;;;34.38;17.00;;;;;;;0.61;100.00;100303.59;6305879;22;20017;-81
2023/12/08 03:43:48;;;;;;;33.08;16.73;;;;;;;0.63;100.00;100308.69;6304083;22;20310;-80
2023/12/08 03:46:13;;;;;;;32.78;17.13;;;;;;;0.68;100.00;100317.72;6305539;22;20439;-81
2023/12/08 03:48:38;;;;;;;32.30;16.63;;;;;;;0.66;100.00;100311.81;6305579;22;20078;-81
2023/12/08 03:51:04;;;;;;;33.60;17.95;;;;;;;0.72;100.00;100315.59;6305711;22;20003;-81
2023/12/08 03:53:31;;;;;;;27.13;13.43;;;;;;;0.78;100.00;100318.38;6278340;22;20007;-80
2023/12/08 03:55:56;;;;;;;26.08;14.48;;;;;;;0.72;100.00;100305.06;6277997;22;20340;-81
2023/12/08 03:58:21;;;;;;;35.22;17.05;;;;;;;0.67;100.00;100300.28;6305462;22;20004;-83
2023/12/08 04:00:47;;;;;;;31.98;16.88;;;;;;;0.64;100.00;100300.63;6278107;22;19999;-83
2023/12/08 04:03:12;;;;;;;30.88;15.48;;;;;;;0.70;100.00;100302.59;6278208;22;20018;-83
2023/12/08 04:05:37;;;;;;;28.42;15.55;;;;;;;0.71;100.00;100306.06;6278039;22;20030;-84
2023/12/08 04:08:04;;;;;;;28.95;15.27;;;;;;;0.67;100.00;100287.16;6278076;22;20011;-83
2023/12/08 04:10:30;;;;;;;37.40;19.80;;;;;;;0.69;100.00;100293.06;6278002;22;20053;-83
2023/12/08 04:12:56;;;;;;;37.10;19.55;;;;;;;0.68;100.00;100294.06;6278174;22;20035;-82
2023/12/08 04:15:21;;;;;;;34.35;18.20;;;;;;;0.71;100.00;100295.53;6305386;22;20325;-82
2023/12/08 04:17:46;;;;;;;35.30;18.13;;;;;;;0.73;100.00;100297.00;6278127;22;20011;-83
2023/12/08 04:20:12;;;;;;;29.50;16.10;;;;;;;0.68;100.00;100291.41;6277986;22;20010;-83
2023/12/08 04:22:37;;;;;;;37.80;19.77;;;;;;;0.66;100.00;100268.91;6277994;22;20003;-81
2023/12/08 04:25:03;;;;;;;34.70;18.05;;;;;;;0.65;100.00;100268.06;6277727;22;20011;-83
2023/12/08 04:27:28;;;;;;;29.90;14.57;;;;;;;0.66;100.00;100288.13;6277875;22;20008;-83
2023/12/08 04:29:53;;;;;;;31.27;15.93;;;;;;;0.75;100.00;100307.38;6278019;22;20378;-82
2023/12/08 04:32:19;;;;;;;34.20;18.10;;;;;;;0.66;100.00;100280.25;6305379;22;20031;-82
2023/12/08 04:34:44;;;;;;;41.28;20.10;;;;;;;0.73;100.00;100297.00;6277800;22;20505;-82
2023/12/08 04:37:09;;;;;;;39.55;21.25;;;;;;;0.71;100.00;100309.50;6277716;22;20317;-82
2023/12/08 04:39:35;;;;;;;32.75;16.00;;;;;;;0.74;100.00;100309.19;6277779;22;20007;-82
2023/12/08 04:42:00;;;;;;;39.03;19.38;;;;;;;0.72;100.00;100303.25;6305200;22;20078;-83
2023/12/08 04:44:25;;;;;;;37.88;17.13;;;;;;;0.73;100.00;100283.03;6304993;22;20082;-81
2023/12/08 04:46:50;;;;;;;35.42;18.52;;;;;;;0.77;100.00;100287.78;6305307;22;20331;-81
2023/12/08 04:49:16;;;;;;;32.67;16.92;;;;;;;0.72;100.00;100271.69;6277939;22;20455;-82
2023/12/08 04:51:42;;;;;;;35.85;17.98;;;;;;;0.79;100.00;100300.78;6277692;22;20003;-82
2023/12/08 04:54:07;;;;;;;32.20;16.40;;;;;;;0.77;100.00;100285.16;6277808;22;20107;-83
2023/12/08 04:56:32;;;;;;;38.88;18.48;;;;;;;0.81;100.00;100302.25;6305170;22;20074;-81
2023/12/08 04:58:58;;;;;;;23.25;13.07;;;;;;;0.85;100.00;100274.63;6277667;22;20015;-82
2023/12/08 05:01:23;;;;;;;31.63;17.92;;;;;;;0.91;100.00;100273.16;6278115;22;20064;-82
2023/12/08 05:03:48;;;;;;;31.08;16.13;;;;;;;0.86;100.00;100275.44;6277538;22;20011;-83
2023/12/08 05:06:15;;;;;;;42.85;22.40;;;;;;;0.93;100.00;100293.06;6303557;22;20052;-82
2023/12/08 05:08:40;;;;;;;32.72;16.80;;;;;;;0.84;100.00;100269.53;6304949;22;20003;-83
2023/12/08 05:11:06;;;;;;;29.25;14.80;;;;;;;0.86;100.00;100281.53;6277640;22;20428;-83
2023/12/08 05:13:31;;;;;;;26.23;14.43;;;;;;;0.99;100.00;100290.75;6277616;22;20424;-83
2023/12/08 05:15:56;;;;;;;29.08;16.13;;;;;;;0.90;100.00;100272.34;6305039;22;20007;-83
2023/12/08 05:18:22;;;;;;;33.95;16.65;;;;;;;0.88;100.00;100265.59;6277639;22;19999;-82
2023/12/08 05:20:47;;;;;;;37.45;17.55;;;;;;;0.94;100.00;100272.84;6277626;22;20069;-83
2023/12/08 05:23:13;;;;;;;31.65;16.38;;;;;;;1.00;100.00;100269.53;6277337;22;20121;-81
2023/12/08 05:25:38;;;;;;;33.83;16.92;;;;;;;1.01;100.00;100258.03;6277412;22;20019;-81
2023/12/08 05:28:03;;;;;;;34.13;18.02;;;;;;;1.03;100.00;100266.56;6277434;22;20331;-81
2023/12/08 05:30:29;;;;;;;33.42;18.92;;;;;;;1.07;100.00;100272.31;6277902;22;20010;-80
2023/12/08 05:32:54;;;;;;;34.28;17.65;;;;;;;1.06;100.00;100282.03;6277412;22;20018;-81
2023/12/08 05:35:20;;;;;;;36.78;16.48;;;;;;;0.97;100.00;100266.41;6277342;22;20000;-80
2023/12/08 05:37:45;;;;;;;48.08;25.95;;;;;;;1.00;100.00;100276.63;6277219;22;20007;-79
2023/12/08 05:40:11;;;;;;;34.22;16.20;;;;;;;1.10;100.00;100293.03;6277414;22;20403;-81
2023/12/08 05:42:37;;;;;;;37.53;18.38;;;;;;;1.09;100.00;100292.22;6277362;22;20129;-80
2023/12/08 05:45:02;;;;;;;46.38;21.48;;;;;;;1.17;100.00;100299.31;6304528;22;20035;-80
2023/12/08 05:47:28;;;;;;;37.90;18.70;;;;;;;1.18;100.00;100304.41;6304532;22;20003;-81
2023/12/08 05:49:53;;;;;;;43.67;20.15;;;;;;;1.12;100.00;100296.31;6277494;22;20025;-81
2023/12/08 05:52:19;;;;;;;35.33;17.60;;;;;;;1.18;100.00;100298.31;6278969;22;20064;-81
2023/12/08 05:54:44;;;;;;;38.47;19.15;;;;;;;1.14;100.00;100282.00;6306072;22;20533;-81
2023/12/08 05:57:09;;;;;;;38.00;18.52;;;;;;;1.27;100.00;100313.09;6278850;22;20010;-81
2023/12/08 05:59:35;;;;;;;36.67;19.17;;;;;;;1.30;100.00;100306.69;6305891;22;20101;-80
2023/12/08 06:02:00;;;;;;;36.42;18.23;;;;;;;1.31;100.00;100301.25;6278720;22;20007;-81
2023/12/08 06:04:25;;;;;;;32.85;15.27;;;;;;;1.26;100.00;100287.75;6306007;22;20084;-82
2023/12/08 06:06:51;;;;;;;26.67;13.85;;;;;;;1.37;100.00;100287.41;6306190;22;20011;-80
2023/12/08 06:09:17;;;;;;;37.53;17.33;;;;;;;1.35;100.00;100281.47;6278557;22;20011;-80
2023/12/08 06:11:42;;;;;;;53.13;23.80;;;;;;;1.37;100.00;100276.88;6278664;22;19999;-80
2023/12/08 06:14:09;;;;;;;39.85;21.10;;;;;;;1.43;100.00;100286.72;6306074;22;20014;-81
2023/12/08 06:16:34;;;;;;;50.75;26.20;;;;;;;1.41;100.00;100272.09;6278763;22;20023;-82
2023/12/08 06:19:00;;;;;;;45.13;20.20;;;;;;;1.50;100.00;100279.81;6278855;22;20425;-82
2023/12/08 06:21:25;;;;;;;47.05;21.00;;;;;;;1.48;100.00;100278.34;6306337;22;20002;-82
2023/12/08 06:23:50;;;;;;;50.13;23.13;;;;;;;1.51;100.00;100285.91;6306110;22;20050;-83
2023/12/08 06:26:16;;;;;;;42.08;21.17;;;;;;;1.62;100.00;100297.88;6306289;22;20003;-83
2023/12/08 06:28:41;;;;;;;48.85;21.65;;;;;;;1.60;100.00;100297.22;6278762;22;20394;-83
2023/12/08 06:31:09;;;;;;;48.20;21.05;;;;;;;1.71;100.00;100302.94;6278647;22;20004;-83
2023/12/08 06:33:35;;;;;;;44.35;18.95;;;;;;;1.70;100.00;100300.47;6278732;22;20012;-82
2023/12/08 06:36:01;;;;;;;51.35;23.30;;;;;;;1.73;100.00;100302.78;6278665;22;20335;-84
2023/12/08 06:38:26;;;;;;;48.53;19.42;;;;;;;1.75;100.00;100304.28;6306118;22;20422;-82
2023/12/08 06:40:53;;;;;;;36.83;16.65;;;;;;;1.78;100.00;100311.03;6278621;22;20038;-83
2023/12/08 06:43:19;;;;;;;56.55;23.75;;;;;;;1.79;100.00;100304.75;6278602;22;20085;-84
2023/12/08 06:45:45;;;;;;;50.10;20.90;;;;;;;1.85;100.00;100309.34;6306273;22;20011;-84
2023/12/08 06:48:10;;;;;;;59.53;23.67;;;;;;;1.88;100.00;100324.81;6306152;22;20004;-82
2023/12/08 06:50:36;;;;;;;42.72;17.27;;;;;;;1.82;100.00;100310.50;6305681;22;20007;-83
2023/12/08 06:53:01;;;;;;;48.75;20.45;;;;;;;1.82;100.00;100313.13;6278720;22;20082;-83
2023/12/08 06:55:26;;;;;;;47.88;20.73;;;;;;;1.92;100.00;100318.19;6278513;22;20007;-84
2023/12/08 06:57:52;;;;;;;51.40;22.05;;;;;;;1.91;100.00;100313.09;6306119;22;20008;-83
2023/12/08 07:00:17;;;;;;;41.03;16.65;;;;;;;1.94;100.00;100328.56;6278530;22;20011;-82
2023/12/08 07:02:44;;;;;;;56.17;23.50;;;;;;;1.93;100.00;100327.75;6278565;22;20082;-82
2023/12/08 07:05:10;;;;;;;51.58;19.73;;;;;;;1.92;100.00;100320.00;6305854;22;20124;-85
2023/12/08 07:07:36;;;;;;;51.35;20.15;;;;;;;1.78;100.00;100298.66;6306412;22;20007;-82
2023/12/08 07:10:02;;;;;;;45.95;18.80;;;;;;;1.86;100.00;100305.72;6279109;22;20018;-85
2023/12/08 07:12:27;;;;;;;56.90;20.70;;;;;;;1.72;100.00;100274.78;6278600;22;20003;-84
2023/12/08 07:14:52;;;;;;;49.47;18.92;;;;;;;1.99;100.00;100319.16;6305805;22;20423;-80
2023/12/08 07:17:18;;;;;;;55.30;21.45;;;;;;;1.96;100.00;100310.75;6305667;22;20351;-82
2023/12/08 07:19:44;;;;;;;50.17;19.85;;;;;;;1.90;100.00;100301.72;6278282;22;20050;-84
2023/12/08 07:22:10;;;;;;;57.75;22.65;;;;;;;2.04;100.00;100321.31;6278788;22;20002;-83
2023/12/08 07:24:37;;;;;;;53.88;20.77;;;;;;;1.97;100.00;100315.88;6278333;22;20011;-82
2023/12/08 07:27:10;;;;;;;62.85;22.27;;;;;;;2.02;100.00;100321.44;6305550;22;20010;-83
2023/12/08 07:29:36;;;;;;;53.85;19.35;;;;;;;1.85;100.00;100299.63;6278218;22;20014;-84
2023/12/08 07:32:03;;;;;;;52.85;18.77;;;;;;;2.02;100.00;100315.34;6305675;22;20168;-84
2023/12/08 07:34:28;;;;;;;52.80;19.65;;;;;;;2.09;100.00;100338.25;6278211;22;20007;-84
2023/12/08 07:36:54;;;;;;;61.25;23.88;;;;;;;2.08;100.00;100336.59;6305549;22;20084;-83
2023/12/08 07:39:19;;;;;;;65.57;23.52;;;;;;;2.10;100.00;100331.16;6278234;22;20007;-85
2023/12/08 07:41:44;;;;;;;52.17;21.20;;;;;;;2.09;100.00;100343.53;6278214;22;19999;-84
2023/12/08 07:44:10;;;;;;;62.55;20.50;;;;;;;2.08;100.00;100336.59;6278094;22;20011;-85
2023/12/08 07:46:35;;;;;;;58.78;21.58;;;;;;;2.14;100.00;100341.19;6278165;22;20447;-84
2023/12/08 07:49:00;;;;;;;62.63;22.60;;;;;;;2.17;100.00;100345.28;6278055;22;20004;-84
2023/12/08 07:51:27;;;;;;;48.97;21.00;;;;;;;2.22;100.00;100347.41;6305544;22;20034;-84
2023/12/08 07:53:52;;;;;;;65.68;24.80;;;;;;;2.21;100.00;100351.03;6278182;22;20011;-85
2023/12/08 07:56:18;;;;;;;89.80;30.90;;;;;;;2.23;100.00;100355.16;6305550;22;20003;-85
2023/12/08 07:58:43;;;;;;;65.43;24.25;;;;;;;2.21;100.00;100349.22;6278322;22;20104;-86
2023/12/08 08:01:08;;;;;;;67.70;23.02;;;;;;;2.29;100.00;100358.91;6277973;22;20015;-87
2023/12/08 08:03:34;;;;;;;89.05;28.35;;;;;;;2.22;100.00;100342.97;6305498;22;20003;-85
2023/12/08 08:06:00;;;;;;;83.53;28.45;;;;;;;2.36;100.00;100357.25;6277947;22;20017;-89
2023/12/08 08:08:25;;;;;;;78.05;24.48;;;;;;;2.29;100.00;100348.34;6277930;22;20007;-85
2023/12/08 08:10:50;;;;;;;76.10;22.85;;;;;;;2.36;100.00;100352.78;6277810;22;20014;-84
2023/12/08 08:13:15;;;;;;;92.63;27.48;;;;;;;2.35;100.00;100345.06;6277217;22;20010;-86
2023/12/08 08:22:15;;;;;;;89.45;27.55;;;;;;;2.56;100.00;100363.72;6305500;22;20423;-83
2023/12/08 08:24:40;;;;;;;99.40;31.40;;;;;;;2.59;100.00;100363.34;6277775;22;20094;-85
2023/12/08 08:27:05;;;;;;;111.00;30.05;;;;;;;2.56;100.00;100358.44;6278105;22;20015;-87
2023/12/08 08:29:31;;;;;;;111.38;31.15;;;;;;;2.63;100.00;100353.31;6277876;22;20011;-86
2023/12/08 08:31:56;;;;;;;121.22;32.97;;;;;;;2.60;100.00;100348.34;6277729;22;20012;-86
2023/12/08 08:34:22;;;;;;;88.10;26.48;;;;;;;2.67;100.00;100355.41;6277939;22;20015;-86
2023/12/08 08:36:47;;;;;;;109.22;30.80;;;;;;;2.78;100.00;100370.84;6278511;22;20433;-83
2023/12/08 08:39:14;;;;;;;118.30;34.42;;;;;;;2.70;100.00;100348.97;6278201;22;20320;-87
2023/12/08 08:41:43;;;;;;;120.47;31.30;;;;;;;2.77;100.00;100363.91;6278320;22;20338;-83
2023/12/08 08:44:08;;;;;;;102.32;29.02;;;;;;;2.82;100.00;100370.50;6277633;22;20003;-88
2023/12/08 08:46:34;;;;;;;132.02;36.90;;;;;;;2.87;100.00;100379.50;6277618;22;20011;-83
2023/12/08 08:48:59;;;;;;;127.22;34.20;;;;;;;2.93;100.00;100383.31;6277530;22;20152;-86
2023/12/08 08:51:25;;;;;;;95.20;24.75;;;;;;;2.97;100.00;100390.69;6277775;22;19999;-86
2023/12/08 08:53:50;;;;;;;120.47;33.10;;;;;;;2.90;100.00;100365.16;6277772;22;20335;-87
2023/12/08 08:56:16;;;;;;;119.22;29.33;;;;;;;3.02;100.00;100392.81;6277659;22;20007;-86
2023/12/08 08:58:41;;;;;;;111.25;31.48;;;;;;;3.04;100.00;100394.25;6305098;22;20074;-85
2023/12/08 09:01:07;;;;;;;114.15;32.70;;;;;;;3.11;100.00;100387.28;6277413;22;20003;-85
2023/12/08 09:03:32;;;;;;;111.82;28.80;;;;;;;3.10;100.00;100376.88;6304849;22;20031;-85
2023/12/08 09:05:57;;;;;;;123.35;36.60;;;;;;;3.21;100.00;100388.88;6277313;22;20435;-83
2023/12/08 09:08:23;;;;;;;108.75;31.98;;;;;;;3.26;100.00;100383.88;6277576;22;20003;-87
2023/12/08 09:10:50;;;;;;;130.70;36.70;;;;;;;3.25;100.00;100382.22;6305002;22;20010;-85
2023/12/08 09:13:15;;;;;;;111.93;33.38;;;;;;;3.31;100.00;100381.50;6304742;22;20003;-84
2023/12/08 09:15:42;;;;;;;105.28;29.90;;;;;;;3.37;100.00;100389.53;6277633;22;20039;-85
2023/12/08 09:18:07;;;;;;;84.43;24.00;;;;;;;3.45;100.00;100393.94;6277320;22;20432;-87
2023/12/08 09:20:33;;;;;;;99.28;25.40;;;;;;;3.48;100.00;100398.06;6277704;22;20010;-86
2023/12/08 09:22:58;;;;;;;76.68;21.67;;;;;;;3.61;100.00;100407.00;6277413;22;20011;-86
2023/12/08 09:25:23;;;;;;;106.75;31.33;;;;;;;3.63;100.00;100402.34;6278514;22;20007;-86
2023/12/08 09:27:49;;;;;;;92.28;24.80;;;;;;;3.69;100.00;100396.34;6278771;22;20014;-86
2023/12/08 09:30:14;;;;;;;87.47;25.58;;;;;;;3.77;100.00;100403.41;6306191;22;20009;-84
2023/12/08 09:32:40;;;;;;;110.68;29.50;;;;;;;3.71;100.00;100391.69;6278965;22;20014;-86
2023/12/08 09:35:05;;;;;;;90.38;26.33;;;;;;;3.89;100.00;100414.34;6278922;22;20011;-85
2023/12/08 09:37:30;;;;;;;86.25;24.00;;;;;;;3.91;100.00;100405.22;6278932;22;20017;-85
2023/12/08 09:39:56;;;;;;;87.88;25.30;;;;;;;4.00;100.00;100421.81;6306353;22;20000;-85
2023/12/08 09:42:25;;;;;;;74.18;20.80;;;;;;;4.08;100.00;100423.56;6278812;22;20030;-85
2023/12/08 09:44:51;;;;;;;88.35;23.92;;;;;;;4.08;100.00;100427.03;6278855;22;20011;-85
2023/12/08 09:47:19;;;;;;;97.72;26.00;;;;;;;4.07;100.00;100411.34;6278793;22;20003;-85
2023/12/08 09:49:46;;;;;;;100.22;34.53;;;;;;;4.13;100.00;100426.50;6278853;22;20451;-83
2023/12/08 09:52:15;;;;;;;102.55;30.15;;;;;;;4.18;100.00;100419.66;6278880;22;20018;-85
2023/12/08 09:54:42;;;;;;;86.47;24.00;;;;;;;4.18;100.00;100418.81;6278636;22;20010;-85
2023/12/08 09:57:09;;;;;;;98.00;24.52;;;;;;;4.19;100.00;100423.94;6306138;22;20417;-85
2023/12/08 09:59:37;;;;;;;100.05;28.15;;;;;;;4.26;100.00;100424.00;6278764;22;20004;-86
2023/12/08 10:02:02;;;;;;;84.07;23.98;;;;;;;4.36;100.00;100427.22;6278595;22;20011;-86
2023/12/08 10:04:28;;;;;;;114.22;33.00;;;;;;;4.33;100.00;100407.22;6305747;22;20007;-85
2023/12/08 10:06:56;;;;;;;107.88;31.35;;;;;;;4.41;100.00;100419.53;6278659;22;20011;-84
2023/12/08 10:09:22;;;;;;;105.95;34.08;;;;;;;4.41;100.00;100422.19;6305977;22;20504;-84
2023/12/08 10:11:48;;;;;;;99.95;26.52;;;;;;;4.54;100.00;100417.06;6278542;22;20007;-86
2023/12/08 10:14:15;;;;;;;103.05;26.00;;;;;;;4.59;100.00;100417.31;6278611;22;20458;-86
2023/12/08 10:16:43;;;;;;;108.03;24.67;;;;;;;4.67;100.00;100419.06;6278710;22;20451;-86
2023/12/08 10:19:09;;;;;;;107.85;33.97;;;;;;;4.70;100.00;100409.91;6306133;22;20045;-85
2023/12/08 10:21:34;;;;;;;109.38;25.23;;;;;;;4.68;100.00;100404.81;6305824;22;20018;-86
2023/12/08 10:24:01;;;;;;;87.15;26.20;;;;;;;4.73;100.00;100412.19;6278495;22;20003;-86
2023/12/08 10:26:27;;;;;;;107.07;29.02;;;;;;;4.83;100.00;100426.75;6278403;22;20034;-85
2023/12/08 10:28:57;;;;;;;90.95;22.67;;;;;;;4.78;100.00;100413.25;6305902;22;20007;-87
2023/12/08 10:31:23;;;;;;;76.03;20.38;;;;;;;4.97;100.00;100425.09;6278371;22;20007;-85
2023/12/08 10:33:49;;;;;;;106.65;27.80;;;;;;;4.97;100.00;100433.03;6306035;22;20011;-85
2023/12/08 10:36:15;;;;;;;84.47;22.13;;;;;;;4.94;100.00;100422.81;6305434;22;20332;-87
2023/12/08 10:38:41;;;;;;;78.15;20.33;;;;;;;4.95;100.00;100425.28;6305854;22;20030;-87
2023/12/08 10:41:09;;;;;;;93.80;24.50;;;;;;;4.99;100.00;100436.31;6278482;22;20333;-86
2023/12/08 10:43:39;;;;;;;78.80;21.35;;;;;;;5.13;100.00;100431.97;6278319;22;20023;-85
2023/12/08 10:46:06;;;;;;;77.47;20.35;;;;;;;5.15;100.00;100430.75;6306110;22;20010;-87
2023/12/08 10:48:34;;;;;;;91.15;22.83;;;;;;;5.15;100.00;100428.13;6305894;22;20003;-85
2023/12/08 10:51:00;;;;;;;104.43;27.63;;;;;;;5.21;100.00;100432.69;6278379;22;19999;-84
2023/12/08 10:53:26;;;;;;;99.22;27.02;;;;;;;5.22;100.00;100425.56;6278367;22;20335;-85
2023/12/08 10:56:06;;;;;;;104.35;30.33;;;;;;;5.23;100.00;100417.41;6278317;22;20086;-85
2023/12/08 10:58:35;;;;;;;93.93;25.23;;;;;;;5.36;100.00;100427.31;6305787;22;20003;-84
2023/12/08 11:01:07;;;;;;;78.88;20.00;;;;;;;5.33;100.00;100417.09;6278462;22;20023;-86
2023/12/08 11:03:34;;;;;;;100.05;27.85;;;;;;;5.36;100.00;100422.00;6278147;22;20436;-84
2023/12/08 11:06:09;;;;;;;79.57;21.92;;;;;;;5.44;100.00;100429.00;6305727;22;20011;-86
2023/12/08 11:08:35;;;;;;;78.38;25.67;;;;;;;5.39;100.00;100423.44;6305637;22;20420;-84
2023/12/08 11:11:04;;;;;;;68.32;20.08;;;;;;;5.51;100.00;100422.75;6305669;22;20383;-84